Long Island Mac Arthur Airport
KISP : now visible

Airfield :











YOU CAN JOIN US ON...

 
LOGIN :

Register | Disclaimer

   EN    FR    IT 

 









Legend :    VFR   Marginal VFR   IFR   Intensive IFR   Very Intensive IFR
Visi :
Ceiling :
>= 8 km
>= 3000ft
5 to 8 km
1000 to 3000 ft
1500m to 5 km
500 to 1000 ft
800 to 1500m
200 to 500 ft
< 800m
< 200 ft
Symbols :   Thunderstorms  Fog  Heavy snow  Heavy precipitations  Wind > 20 kt







- Airport Elevation : 99 ft
- IATA code : ISP


KISP - Long Island Mac Arthur

CURRENT METAR :
  • 160556Z AUTO 27006KT 10SM CLR 20/19 A3005 RMK AO2 SLP177 T02000194 10211 20183 56003

EXPIRED METARs :
  • 160456Z AUTO 26005KT 9SM CLR 19/19 A3006 RMK AO2 SLP178 T01940189 402670183
  • 160356Z 25004KT 10SM FEW200 SCT250 19/18 A3006 RMK AO2 SLP177 LAST T01890183

TAF KISP
Valid from the 16 at 06:00 until the 17 at 06:00 UTC


160537Z 1606/1706 26004KT P6SM BKN150
FM160800 VRB03KT P6SM BKN100
FM161200 36005KT P6SM BKN090
FM161900 10005KT P6SM BKN050
FM162100 15006KT P6SM BKN050
FM170000 VRB03KT P6SM BKN050
FM170500 02007KT P6SM FEW050
No reported NOTAMs for that airfield.



MET'MAP, your aeronautical weather chart ! - Copyright ORBIFLY December 2007 - Disclaimer

ORBIFLY MET'MAP TEAM :

Programming & Development : Alexandra Zaïnal
Concept & Development : Baudouin d'Aumeries
Co-Development & Prog : Marc-Olivier Méhu
Technical & hardware support : Manuel Goepfert

Contact : metmap@orbifly.com




SOURCES & CREDITS :

   NOAA       Earth
Advisory